Hamnavoe — VSTY7 — position and weather

sailwx.info

Track history (hours):
 
Tides and Currents Weather Stations Pressure Air Temp Water Temp Dewpoint Dewpoint Depression Visibility Wind Speed Wind Dir Waves Ship Positions

Hamnavoe

Operator: NorthLink Orkey & Shetland Ferries Ltd

Last reported at 2019-Jan-23 18:05 UTC. Time now 2019-Jan-23 18:59 UTC.
Position N 58°37' W 003°32'.

Length 112 m; draft 4.2 m.

Type: Passenger vessel. MMSI: 235449000.

Date/timePositionNaut miles runAvg speedWind from/ knotsBaromVisibWave heightAir tempDewpointWater temp
2019-Jan-23 18:05N 58°37' W 003°32'418.6
2019-Jan-23 17:51N 58°41' W 003°31'15 1.9
2019-Jan-23 09:46N 58°53' W 003°12'415.5
2019-Jan-23 09:30N 58°49' W 003°09'918.3
2019-Jan-23 09:00N 58°42' W 003°21'5 0.4
2019-Jan-22 17:52N 58°41' W 003°31'15 1.8
2019-Jan-22 09:37N 58°53' W 003°11'215.7
2019-Jan-22 09:28N 58°50' W 003°11'814.1
2019-Jan-22 08:54N 58°43' W 003°19'6 0.4
2019-Jan-21 17:49N 58°43' W 003°31'1 0.1
2019-Jan-21 07:34N 58°44' W 003°31'13 1.1
2019-Jan-20 20:00N 58°52' W 003°11'815.0
2019-Jan-20 19:26N 58°44' W 003°17'8 5.4
2019-Jan-20 17:54N 58°41' W 003°31'3 0.3
2019-Jan-20 09:55N 58°44' W 003°30'0 0.0
2019-Jan-19 17:45N 58°43' W 003°30'0 0.0
2019-Jan-19 09:57N 58°43' W 003°30'15 1.2
2019-Jan-18 21:46N 58°54' W 003°10'312.3
2019-Jan-18 21:30N 58°52' W 003°04'918.4
2019-Jan-18 21:00N 58°44' W 003°01'816.1
2019-Jan-18 20:30N 58°36' W 002°56'6819.6
2019-Jan-18 17:04N 57°39' W 001°47'220.2
2019-Jan-18 16:58N 57°37' W 001°46'1020.6
2019-Jan-18 16:30N 57°28' W 001°42'1020.5
2019-Jan-18 16:00N 57°18' W 001°46'1020.5
2019-Jan-18 15:31N 57°08' W 001°52'1020.4
2019-Jan-18 15:01N 56°59' W 001°59'3419.8
2019-Jan-18 13:17N 56°26' W 002°19'519.3
2019-Jan-18 13:00N 56°22' W 002°24'1019.4
2019-Jan-18 12:31N 56°14' W 002°33'1019.1
2019-Jan-18 12:01N 56°09' W 002°48'1019.7
2019-Jan-18 11:31N 56°04' W 003°04'917.2
2019-Jan-18 11:00N 56°01' W 003°18'5 9.1
2019-Jan-18 10:30N 56°01' W 003°26'0 0.7
2019-Jan-18 10:00N 56°01' W 003°27'0 0.0
2019-Jan-18 09:30N 56°01' W 003°27'0 0.1
2019-Jan-18 09:00N 56°01' W 003°27'0 0.0
2019-Jan-17 09:30N 56°01' W 003°27'0 0.0
2019-Jan-17 08:48N 56°01' W 003°27'0 0.0
2019-Jan-17 08:30N 56°01' W 003°27'0 0.0
2019-Jan-17 07:59N 56°01' W 003°27'0 0.0
2019-Jan-17 07:26N 56°01' W 003°27'0 0.0
2019-Jan-17 06:53N 56°01' W 003°27'0 0.0
2019-Jan-17 06:30N 56°01' W 003°27'0 0.0
2019-Jan-17 05:05N 56°01' W 003°27'0 0.0
2019-Jan-17 04:59N 56°01' W 003°27'0 0.0
2019-Jan-17 03:32N 56°01' W 003°27'0 0.0
2019-Jan-17 02:43N 56°01' W 003°27'0 0.0
2019-Jan-17 02:26N 56°01' W 003°27'0 0.0
2019-Jan-17 01:42N 56°01' W 003°27'0 0.0
2019-Jan-17 01:24N 56°01' W 003°27'0 0.0
2019-Jan-17 00:58N 56°01' W 003°27'0 0.0
2019-Jan-17 00:29N 56°01' W 003°27'0 0.0
2019-Jan-17 00:00N 56°01' W 003°27'0 0.0
2019-Jan-16 23:29N 56°01' W 003°27'0 0.0
2019-Jan-16 23:00N 56°01' W 003°27'0 0.0
2019-Jan-16 22:21N 56°01' W 003°27'0 0.0
2019-Jan-16 21:59N 56°01' W 003°27'0 0.0
2019-Jan-16 21:08N 56°01' W 003°27'0 0.0
2019-Jan-16 20:53N 56°01' W 003°27'0 0.0
2019-Jan-16 20:26N 56°01' W 003°27'0 0.0
2019-Jan-16 19:59N 56°01' W 003°27'0 0.0
2019-Jan-16 19:23N 56°01' W 003°27'0 0.0
2019-Jan-16 18:35N 56°01' W 003°27'0 0.0
2019-Jan-16 18:17N 56°01' W 003°27'  
2019-Jan-14 13:25N 56°01' W 003°27'0 0.2
2019-Jan-14 12:09N 56°01' W 003°27'2 5.2
2019-Jan-14 11:52N 56°00' W 003°25'511.2
2019-Jan-14 11:22N 56°02' W 003°15'615.8
2019-Jan-14 11:00N 56°04' W 003°05'5 9.2
2019-Jan-14 10:30N 56°05' W 002°57'4 7.2
2019-Jan-14 10:00N 56°07' W 002°52'4 7.4
2019-Jan-14 09:30N 56°09' W 002°47'4 7.6
2019-Jan-14 09:00N 56°11' W 002°41'4 7.9
2019-Jan-14 08:30N 56°13' W 002°35'4 8.1
2019-Jan-14 08:00N 56°15' W 002°29'4 8.3
2019-Jan-14 07:29N 56°18' W 002°22'3914.3
2019-Jan-14 04:46N 56°54' W 001°58'517.4
2019-Jan-14 04:29N 56°59' W 001°57'817.3
2019-Jan-14 04:00N 57°07' W 001°52'917.3
2019-Jan-14 03:30N 57°15' W 001°45'1217.1
2019-Jan-14 02:49N 57°25' W 001°37'716.3
2019-Jan-14 02:24N 57°32' W 001°36'716.8
2019-Jan-14 02:00N 57°39' W 001°40'6516.0
2019-Jan-13 21:58N 58°32' W 002°51'817.7
2019-Jan-13 21:30N 58°39' W 002°58'917.2
2019-Jan-13 21:00N 58°47' W 003°02'  
Track history (hours):
 
Tides and Currents Weather Stations Pressure Air Temp Water Temp Dewpoint Dewpoint Depression Visibility Wind Speed Wind Dir Waves Ship Positions

Hamnavoe

Operator: NorthLink Orkey & Shetland Ferries Ltd

Last reported at 2019-Jan-23 18:05 UTC. Time now 2019-Jan-23 18:59 UTC.
Position N 58°37' W 003°32'.

Length 112 m; draft 4.2 m.

Type: Passenger vessel. MMSI: 235449000.

Date/timePositionNaut miles runAvg speedWind from/ knotsBaromVisibWave heightAir tempDewpointWater temp
2019-Jan-23 18:05N 58°37' W 003°32'418.6
2019-Jan-23 17:51N 58°41' W 003°31'15 1.9
2019-Jan-23 09:46N 58°53' W 003°12'415.5
2019-Jan-23 09:30N 58°49' W 003°09'918.3
2019-Jan-23 09:00N 58°42' W 003°21'5 0.4
2019-Jan-22 17:52N 58°41' W 003°31'15 1.8
2019-Jan-22 09:37N 58°53' W 003°11'215.7
2019-Jan-22 09:28N 58°50' W 003°11'814.1
2019-Jan-22 08:54N 58°43' W 003°19'6 0.4
2019-Jan-21 17:49N 58°43' W 003°31'1 0.1
2019-Jan-21 07:34N 58°44' W 003°31'13 1.1
2019-Jan-20 20:00N 58°52' W 003°11'815.0
2019-Jan-20 19:26N 58°44' W 003°17'8 5.4
2019-Jan-20 17:54N 58°41' W 003°31'3 0.3
2019-Jan-20 09:55N 58°44' W 003°30'0 0.0
2019-Jan-19 17:45N 58°43' W 003°30'0 0.0
2019-Jan-19 09:57N 58°43' W 003°30'15 1.2
2019-Jan-18 21:46N 58°54' W 003°10'312.3
2019-Jan-18 21:30N 58°52' W 003°04'918.4
2019-Jan-18 21:00N 58°44' W 003°01'816.1
2019-Jan-18 20:30N 58°36' W 002°56'6819.6
2019-Jan-18 17:04N 57°39' W 001°47'220.2
2019-Jan-18 16:58N 57°37' W 001°46'1020.6
2019-Jan-18 16:30N 57°28' W 001°42'1020.5
2019-Jan-18 16:00N 57°18' W 001°46'1020.5
2019-Jan-18 15:31N 57°08' W 001°52'1020.4
2019-Jan-18 15:01N 56°59' W 001°59'3419.8
2019-Jan-18 13:17N 56°26' W 002°19'519.3
2019-Jan-18 13:00N 56°22' W 002°24'1019.4
2019-Jan-18 12:31N 56°14' W 002°33'1019.1
2019-Jan-18 12:01N 56°09' W 002°48'1019.7
2019-Jan-18 11:31N 56°04' W 003°04'917.2
2019-Jan-18 11:00N 56°01' W 003°18'5 9.1
2019-Jan-18 10:30N 56°01' W 003°26'0 0.7
2019-Jan-18 10:00N 56°01' W 003°27'0 0.0
2019-Jan-18 09:30N 56°01' W 003°27'0 0.1
2019-Jan-18 09:00N 56°01' W 003°27'0 0.0
2019-Jan-17 09:30N 56°01' W 003°27'0 0.0
2019-Jan-17 08:48N 56°01' W 003°27'0 0.0
2019-Jan-17 08:30N 56°01' W 003°27'0 0.0
2019-Jan-17 07:59N 56°01' W 003°27'0 0.0
2019-Jan-17 07:26N 56°01' W 003°27'0 0.0
2019-Jan-17 06:53N 56°01' W 003°27'0 0.0
2019-Jan-17 06:30N 56°01' W 003°27'0 0.0
2019-Jan-17 05:05N 56°01' W 003°27'0 0.0
2019-Jan-17 04:59N 56°01' W 003°27'0 0.0
2019-Jan-17 03:32N 56°01' W 003°27'0 0.0
2019-Jan-17 02:43N 56°01' W 003°27'0 0.0
2019-Jan-17 02:26N 56°01' W 003°27'0 0.0
2019-Jan-17 01:42N 56°01' W 003°27'0 0.0
2019-Jan-17 01:24N 56°01' W 003°27'0 0.0
2019-Jan-17 00:58N 56°01' W 003°27'0 0.0
2019-Jan-17 00:29N 56°01' W 003°27'0 0.0
2019-Jan-17 00:00N 56°01' W 003°27'0 0.0
2019-Jan-16 23:29N 56°01' W 003°27'0 0.0
2019-Jan-16 23:00N 56°01' W 003°27'0 0.0
2019-Jan-16 22:21N 56°01' W 003°27'0 0.0
2019-Jan-16 21:59N 56°01' W 003°27'0 0.0
2019-Jan-16 21:08N 56°01' W 003°27'0 0.0
2019-Jan-16 20:53N 56°01' W 003°27'0 0.0
2019-Jan-16 20:26N 56°01' W 003°27'0 0.0
2019-Jan-16 19:59N 56°01' W 003°27'0 0.0
2019-Jan-16 19:23N 56°01' W 003°27'0 0.0
2019-Jan-16 18:35N 56°01' W 003°27'0 0.0
2019-Jan-16 18:17N 56°01' W 003°27'  
2019-Jan-14 13:25N 56°01' W 003°27'0 0.2
2019-Jan-14 12:09N 56°01' W 003°27'2 5.2
2019-Jan-14 11:52N 56°00' W 003°25'511.2
2019-Jan-14 11:22N 56°02' W 003°15'615.8
2019-Jan-14 11:00N 56°04' W 003°05'5 9.2
2019-Jan-14 10:30N 56°05' W 002°57'4 7.2
2019-Jan-14 10:00N 56°07' W 002°52'4 7.4
2019-Jan-14 09:30N 56°09' W 002°47'4 7.6
2019-Jan-14 09:00N 56°11' W 002°41'4 7.9
2019-Jan-14 08:30N 56°13' W 002°35'4 8.1
2019-Jan-14 08:00N 56°15' W 002°29'4 8.3
2019-Jan-14 07:29N 56°18' W 002°22'3914.3
2019-Jan-14 04:46N 56°54' W 001°58'517.4
2019-Jan-14 04:29N 56°59' W 001°57'817.3
2019-Jan-14 04:00N 57°07' W 001°52'917.3
2019-Jan-14 03:30N 57°15' W 001°45'1217.1
2019-Jan-14 02:49N 57°25' W 001°37'716.3
2019-Jan-14 02:24N 57°32' W 001°36'716.8
2019-Jan-14 02:00N 57°39' W 001°40'6516.0
2019-Jan-13 21:58N 58°32' W 002°51'817.7
2019-Jan-13 21:30N 58°39' W 002°58'917.2
2019-Jan-13 21:00N 58°47' W 003°02'  

Dump ship's entire track history